createdAt,value
2023-03-28T00:00:13.930Z,953.9692
2023-03-28T00:01:15.613Z,953.9753
2023-03-28T00:02:17.243Z,953.9738
2023-03-28T00:03:18.987Z,953.9823
2023-03-28T00:04:20.598Z,953.9938
2023-03-28T00:05:22.258Z,954.0023
2023-03-28T00:06:23.877Z,954.0131
2023-03-28T00:07:25.531Z,954.0177
2023-03-28T00:08:27.159Z,954.0200
2023-03-28T00:09:28.850Z,954.0223
2023-03-28T00:10:30.470Z,954.0416
2023-03-28T00:11:32.136Z,954.0538
2023-03-28T00:12:33.763Z,954.0630
2023-03-28T00:13:35.441Z,954.0839
2023-03-28T00:14:37.082Z,954.0823
2023-03-28T00:15:38.748Z,954.0892
2023-03-28T00:16:40.376Z,954.0854
2023-03-28T00:17:42.077Z,954.0954
2023-03-28T00:18:43.677Z,954.0923
2023-03-28T00:19:45.383Z,954.0939
2023-03-28T00:20:46.989Z,954.0923
2023-03-28T00:21:48.661Z,954.0839
2023-03-28T00:22:50.281Z,954.0831
2023-03-28T00:23:51.963Z,954.0731
2023-03-28T00:24:53.707Z,954.0831
2023-03-28T00:25:55.266Z,954.0808
2023-03-28T00:26:56.890Z,954.0892
2023-03-28T00:27:58.564Z,954.0839
2023-03-28T00:29:00.197Z,954.0885
2023-03-28T00:30:01.907Z,954.0931
2023-03-28T00:31:03.609Z,954.1031
2023-03-28T00:32:05.186Z,954.1053
2023-03-28T00:33:06.903Z,954.1108
2023-03-28T00:34:08.495Z,954.0977
2023-03-28T00:35:10.147Z,954.0900
2023-03-28T00:36:11.803Z,954.0862
2023-03-28T00:37:13.438Z,954.0777
2023-03-28T00:38:15.116Z,954.0770
2023-03-28T00:39:16.746Z,954.0708
2023-03-28T00:40:18.442Z,954.0685
2023-03-28T00:41:20.060Z,954.0808
2023-03-28T00:42:21.743Z,954.0808
2023-03-28T00:43:23.394Z,954.0785
2023-03-28T00:44:25.042Z,954.0792
2023-03-28T00:45:26.687Z,954.0815
2023-03-28T00:46:28.366Z,954.0785
2023-03-28T00:47:29.990Z,954.0692
2023-03-28T00:48:31.662Z,954.0662
2023-03-28T00:49:33.291Z,954.0692
2023-03-28T00:50:35.016Z,954.0700
2023-03-28T00:51:36.601Z,954.0700
2023-03-28T00:52:38.272Z,954.0815
2023-03-28T00:53:39.902Z,954.0777
2023-03-28T00:54:41.580Z,954.0731
2023-03-28T00:55:43.225Z,954.0746
2023-03-28T00:56:44.895Z,954.0692
2023-03-28T00:57:46.502Z,954.0615
2023-03-28T00:58:48.174Z,954.0577
2023-03-28T00:59:49.818Z,954.0508
2023-03-28T01:00:51.513Z,954.0515
2023-03-28T01:01:53.183Z,954.0554
2023-03-28T01:02:54.897Z,954.0562
2023-03-28T01:03:56.446Z,954.0569
2023-03-28T01:04:58.090Z,954.0739
2023-03-28T01:05:59.994Z,954.0715
2023-03-28T01:07:01.391Z,954.0708
2023-03-28T01:08:03.023Z,954.0630
2023-03-28T01:09:04.707Z,954.0715
2023-03-28T01:10:06.338Z,954.0677
2023-03-28T01:11:08.031Z,954.0708
2023-03-28T01:12:09.652Z,954.0569
2023-03-28T01:13:11.306Z,954.0554
2023-03-28T01:14:12.952Z,954.0392
2023-03-28T01:15:14.631Z,954.0538
2023-03-28T01:16:16.351Z,954.0385
2023-03-28T01:17:17.948Z,954.0546
2023-03-28T01:18:19.634Z,954.0569
2023-03-28T01:19:21.276Z,954.0670
2023-03-28T01:20:22.877Z,954.0746
2023-03-28T01:21:24.573Z,954.0823
2023-03-28T01:22:26.193Z,954.0839
2023-03-28T01:23:27.844Z,954.0877
2023-03-28T01:24:29.504Z,954.1031
2023-03-28T01:25:31.178Z,954.1123
2023-03-28T01:26:32.820Z,954.1185
2023-03-28T01:27:34.485Z,954.1238
2023-03-28T01:28:36.110Z,954.1354
2023-03-28T01:29:46.538Z,954.1246
2023-03-28T01:30:52.546Z,954.1161
2023-03-28T01:31:58.627Z,954.1133
2023-03-28T01:33:03.203Z,954.1169
2023-03-28T01:34:03.369Z,954.1185
2023-03-28T01:35:05.014Z,954.1308
2023-03-28T01:36:06.718Z,954.1208
2023-03-28T01:37:08.344Z,954.1246
2023-03-28T01:38:10.002Z,954.1300
2023-03-28T01:39:11.632Z,954.1431
2023-03-28T01:40:13.294Z,954.1423
2023-03-28T01:41:14.946Z,954.1508
2023-03-28T01:42:16.645Z,954.1646
2023-03-28T01:43:18.257Z,954.1692
2023-03-28T01:44:19.919Z,954.1830
2023-03-28T01:45:21.547Z,954.1923
2023-03-28T01:46:23.348Z,954.1838
2023-03-28T01:47:24.919Z,954.1808
2023-03-28T01:48:26.532Z,954.1877
2023-03-28T01:49:28.163Z,954.1954
2023-03-28T01:50:29.846Z,954.2108
2023-03-28T01:51:31.476Z,954.2300
2023-03-28T01:52:33.211Z,954.2546
2023-03-28T01:53:34.788Z,954.2639
2023-03-28T01:54:36.467Z,954.2685
2023-03-28T01:55:41.695Z,954.2808
2023-03-28T01:56:39.841Z,954.2938
2023-03-28T01:57:41.475Z,954.2892
2023-03-28T01:58:43.077Z,954.2823
2023-03-28T01:59:44.695Z,954.2777
2023-03-28T02:00:46.493Z,954.2861
2023-03-28T02:01:48.013Z,954.2892
2023-03-28T02:02:49.909Z,954.2839
2023-03-28T02:03:51.332Z,954.2953
2023-03-28T02:04:53.016Z,954.2977
2023-03-28T02:05:54.631Z,954.3030
2023-03-28T02:06:56.321Z,954.3085
2023-03-28T02:07:57.972Z,954.3030
2023-03-28T02:08:59.615Z,954.3069
2023-03-28T02:10:01.251Z,954.3108
2023-03-28T02:11:02.933Z,954.3030
2023-03-28T02:12:04.570Z,954.2969
2023-03-28T02:13:06.255Z,954.2923
2023-03-28T02:14:07.874Z,954.2808
2023-03-28T02:15:09.557Z,954.2747
2023-03-28T02:16:11.233Z,954.2708
2023-03-28T02:17:12.863Z,954.2677
2023-03-28T02:18:14.551Z,954.2677
2023-03-28T02:19:16.159Z,954.2623
2023-03-28T02:20:17.800Z,954.2615
2023-03-28T02:21:19.454Z,954.2500
2023-03-28T02:22:21.142Z,954.2430
2023-03-28T02:23:22.822Z,954.2400
2023-03-28T02:24:24.464Z,954.2292
2023-03-28T02:25:26.130Z,954.2200
2023-03-28T02:26:27.748Z,954.2215
2023-03-28T02:27:29.473Z,954.2054
2023-03-28T02:28:31.170Z,954.1923
2023-03-28T02:29:32.856Z,954.1877
2023-03-28T02:30:34.454Z,954.1677
2023-03-28T02:31:36.106Z,954.1546
2023-03-28T02:32:37.804Z,954.1485
2023-03-28T02:33:39.441Z,954.1331
2023-03-28T02:34:41.033Z,954.1192
2023-03-28T02:35:42.673Z,954.1115
2023-03-28T02:36:44.393Z,954.1100
2023-03-28T02:37:45.981Z,954.1077
2023-03-28T02:38:47.742Z,954.1154
2023-03-28T02:39:49.288Z,954.1108
2023-03-28T02:40:50.991Z,954.1100
2023-03-28T02:41:52.614Z,954.1038
2023-03-28T02:42:54.274Z,954.0961
2023-03-28T02:43:55.958Z,954.0923
2023-03-28T02:44:57.585Z,954.0916
2023-03-28T02:45:59.493Z,954.0815
2023-03-28T02:47:01.352Z,954.0900
2023-03-28T02:48:02.585Z,954.0939
2023-03-28T02:49:06.087Z,954.1133
2023-03-28T02:50:10.591Z,954.1221
2023-03-28T02:51:12.284Z,954.1154
2023-03-28T02:52:13.891Z,954.1023
2023-03-28T02:53:15.569Z,954.0908
2023-03-28T02:54:17.274Z,954.0739
2023-03-28T02:55:18.909Z,954.0646
2023-03-28T02:56:20.515Z,954.0546
2023-03-28T02:57:22.182Z,954.0453
2023-03-28T02:58:23.814Z,954.0400
2023-03-28T02:59:25.518Z,954.0431
2023-03-28T03:00:27.125Z,954.0339
2023-03-28T03:01:28.838Z,954.0308
2023-03-28T03:02:30.458Z,954.0254
2023-03-28T03:03:32.172Z,954.0285
2023-03-28T03:04:33.764Z,954.0146
2023-03-28T03:05:35.429Z,954.0023
2023-03-28T03:06:37.065Z,953.9846
2023-03-28T03:07:38.713Z,953.9723
2023-03-28T03:08:40.335Z,953.9577
2023-03-28T03:09:42.561Z,953.9547
2023-03-28T03:10:43.646Z,953.9477
2023-03-28T03:11:45.325Z,953.9431
2023-03-28T03:12:46.951Z,953.9454
2023-03-28T03:13:48.623Z,953.9423
2023-03-28T03:14:50.273Z,953.9431
2023-03-28T03:15:51.986Z,953.9415
2023-03-28T03:16:53.546Z,953.9415
2023-03-28T03:17:55.252Z,953.9330
2023-03-28T03:18:56.872Z,953.9169
2023-03-28T03:19:58.551Z,953.9169
2023-03-28T03:21:00.161Z,953.9116
2023-03-28T03:22:01.833Z,953.9023
2023-03-28T03:23:03.473Z,953.8900
2023-03-28T03:24:05.134Z,953.8946
2023-03-28T03:25:06.828Z,953.8854
2023-03-28T03:26:08.453Z,953.8762
2023-03-28T03:27:10.069Z,953.8815
2023-03-28T03:28:11.750Z,953.8738
2023-03-28T03:29:13.378Z,953.8715
2023-03-28T03:30:15.052Z,953.8608
2023-03-28T03:31:16.702Z,953.8577
2023-03-28T03:32:18.368Z,953.8577
2023-03-28T03:33:20.018Z,953.8477
2023-03-28T03:34:21.672Z,953.8454
2023-03-28T03:35:23.380Z,953.8385
2023-03-28T03:36:24.974Z,953.8362
2023-03-28T03:37:26.622Z,953.8339
2023-03-28T03:38:28.288Z,953.8308
2023-03-28T03:39:29.920Z,953.8223
2023-03-28T03:40:31.634Z,953.8077
2023-03-28T03:41:33.239Z,953.7900
2023-03-28T03:42:34.925Z,953.7739
2023-03-28T03:43:36.563Z,953.7723
2023-03-28T03:44:38.226Z,953.7662
2023-03-28T03:45:39.930Z,953.7631
2023-03-28T03:46:41.577Z,953.7692
2023-03-28T03:47:43.223Z,953.7700
2023-03-28T03:48:50.018Z,953.7723
2023-03-28T03:49:46.482Z,953.7684
2023-03-28T03:50:48.179Z,953.7747
2023-03-28T03:51:49.787Z,953.7808
2023-03-28T03:52:51.440Z,953.7985
2023-03-28T03:53:53.103Z,953.8054
2023-03-28T03:54:54.763Z,953.8170
2023-03-28T03:55:56.417Z,953.8331
2023-03-28T03:56:58.127Z,953.8270
2023-03-28T03:57:59.711Z,953.8408
2023-03-28T03:59:01.366Z,953.8508
2023-03-28T04:00:02.991Z,953.8585
2023-03-28T04:01:04.701Z,953.8608
2023-03-28T04:02:06.348Z,953.8623
2023-03-28T04:03:08.027Z,953.8561
2023-03-28T04:04:09.650Z,953.8458
2023-03-28T04:05:11.264Z,953.8439
2023-03-28T04:06:12.983Z,953.8508
2023-03-28T04:07:14.590Z,953.8630
2023-03-28T04:08:16.246Z,953.8762
2023-03-28T04:09:17.892Z,953.8792
2023-03-28T04:10:19.528Z,953.8862
2023-03-28T04:11:21.206Z,953.8931
2023-03-28T04:12:22.838Z,953.8870
2023-03-28T04:13:24.491Z,953.8854
2023-03-28T04:14:26.130Z,953.8846
2023-03-28T04:15:27.796Z,953.8939
2023-03-28T04:16:29.488Z,953.8992
2023-03-28T04:17:31.121Z,953.9175
2023-03-28T04:18:32.744Z,953.9131
2023-03-28T04:19:34.425Z,953.9208
2023-03-28T04:20:36.051Z,953.9269
2023-03-28T04:21:37.735Z,953.9238
2023-03-28T04:22:45.220Z,953.9246
2023-03-28T04:23:41.028Z,953.9291
2023-03-28T04:24:42.655Z,953.9292
2023-03-28T04:25:44.332Z,953.9230
2023-03-28T04:26:46.096Z,953.9177
2023-03-28T04:27:47.627Z,953.9230
2023-03-28T04:28:49.308Z,953.9330
2023-03-28T04:29:50.952Z,953.9300
2023-03-28T04:30:52.570Z,953.9338
2023-03-28T04:31:54.296Z,953.9377
2023-03-28T04:32:55.865Z,953.9470
2023-03-28T04:33:57.554Z,953.9408
2023-03-28T04:34:59.152Z,953.9408
2023-03-28T04:36:00.960Z,953.9346
2023-03-28T04:37:02.510Z,953.9370
2023-03-28T04:38:04.154Z,953.9462
2023-03-28T04:39:05.765Z,953.9531
2023-03-28T04:40:07.448Z,953.9554
2023-03-28T04:41:09.088Z,953.9677
2023-03-28T04:42:10.765Z,953.9654
2023-03-28T04:43:12.384Z,953.9623
2023-03-28T04:44:14.071Z,953.9600
2023-03-28T04:45:17.899Z,953.9654
2023-03-28T04:46:17.407Z,953.9708
2023-03-28T04:47:19.016Z,953.9808
2023-03-28T04:48:20.665Z,953.9954
2023-03-28T04:49:22.289Z,954.0154
2023-03-28T04:50:23.994Z,954.0284
2023-03-28T04:51:25.604Z,954.0400
2023-03-28T04:52:27.307Z,954.0508
2023-03-28T04:53:28.906Z,954.0592
2023-03-28T04:54:30.597Z,954.0662
2023-03-28T04:55:32.218Z,954.0630
2023-03-28T04:56:33.885Z,954.0715
2023-03-28T04:57:35.545Z,954.0762
2023-03-28T04:58:37.178Z,954.0869
2023-03-28T04:59:38.819Z,954.0961
2023-03-28T05:00:40.504Z,954.1270
2023-03-28T05:01:42.174Z,954.1169
2023-03-28T05:02:43.920Z,954.1123
2023-03-28T05:03:45.482Z,954.0939
2023-03-28T05:04:47.107Z,954.1061
2023-03-28T05:05:48.732Z,954.1185
2023-03-28T05:06:50.435Z,954.1315
2023-03-28T05:07:52.108Z,954.1500
2023-03-28T05:08:53.704Z,954.1516
2023-03-28T05:09:55.337Z,954.1577
2023-03-28T05:10:57.022Z,954.1815
2023-03-28T05:11:58.659Z,954.1900
2023-03-28T05:13:00.350Z,954.1946
2023-03-28T05:14:01.955Z,954.1954
2023-03-28T05:15:03.628Z,954.2008
2023-03-28T05:16:05.302Z,954.2085
2023-03-28T05:17:06.965Z,954.2200
2023-03-28T05:18:08.672Z,954.2177
2023-03-28T05:19:10.253Z,954.2300
2023-03-28T05:20:11.878Z,954.2430
2023-03-28T05:21:13.565Z,954.2508
2023-03-28T05:22:15.170Z,954.2762
2023-03-28T05:23:16.867Z,954.2816
2023-03-28T05:24:18.482Z,954.2885
2023-03-28T05:25:20.164Z,954.2931
2023-03-28T05:26:21.789Z,954.2977
2023-03-28T05:27:23.460Z,954.3100
2023-03-28T05:28:25.126Z,954.3177
2023-03-28T05:29:26.768Z,954.3270
2023-03-28T05:30:28.441Z,954.3408
2023-03-28T05:31:30.128Z,954.3623
2023-03-28T05:32:31.720Z,954.3746
2023-03-28T05:33:33.482Z,954.3839
2023-03-28T05:34:35.017Z,954.3900
2023-03-28T05:35:36.720Z,954.4039
2023-03-28T05:36:38.350Z,954.4108
2023-03-28T05:37:42.505Z,954.4169
2023-03-28T05:38:41.650Z,954.4300
2023-03-28T05:39:43.311Z,954.4354
2023-03-28T05:40:44.929Z,954.4346
2023-03-28T05:41:46.629Z,954.4423
2023-03-28T05:42:48.266Z,954.4677
2023-03-28T05:43:49.957Z,954.4869
2023-03-28T05:44:51.566Z,954.5085
2023-03-28T05:45:53.234Z,954.5215
2023-03-28T05:46:54.854Z,954.5400
2023-03-28T05:47:56.557Z,954.5608
2023-03-28T05:48:58.223Z,954.5815
2023-03-28T05:49:59.826Z,954.5916
2023-03-28T05:51:01.626Z,954.6061
2023-03-28T05:52:03.132Z,954.6154
2023-03-28T05:53:04.803Z,954.6300
2023-03-28T05:54:06.461Z,954.6339
2023-03-28T05:55:08.096Z,954.6516
2023-03-28T05:56:09.741Z,954.6653
2023-03-28T05:57:11.462Z,954.6761
2023-03-28T05:58:13.067Z,954.6777
2023-03-28T05:59:14.748Z,954.6777
2023-03-28T06:00:16.348Z,954.6723
2023-03-28T06:01:18.040Z,954.6723
2023-03-28T06:02:19.645Z,954.6862
2023-03-28T06:03:21.415Z,954.7008
2023-03-28T06:04:22.993Z,954.7054
2023-03-28T06:05:24.643Z,954.7238
2023-03-28T06:06:26.293Z,954.7361
2023-03-28T06:07:39.344Z,954.7546
2023-03-28T06:08:29.571Z,954.7700
2023-03-28T06:09:31.301Z,954.7715
2023-03-28T06:10:32.883Z,954.8115
2023-03-28T06:11:34.561Z,954.7670
2023-03-28T06:12:36.202Z,954.7354
2023-03-28T06:13:37.864Z,954.7092
2023-03-28T06:14:39.530Z,954.7039
2023-03-28T06:15:41.171Z,954.7077
2023-03-28T06:16:42.854Z,954.7477
2023-03-28T06:17:44.555Z,954.7677
2023-03-28T06:18:46.119Z,954.7723
2023-03-28T06:19:47.850Z,954.7892
2023-03-28T06:20:49.430Z,954.8170
2023-03-28T06:21:51.116Z,954.8162
2023-03-28T06:22:52.745Z,954.8085
2023-03-28T06:23:54.418Z,954.8069
2023-03-28T06:24:56.092Z,954.8046
2023-03-28T06:25:57.731Z,954.8046
2023-03-28T06:26:59.364Z,954.8154
2023-03-28T06:28:01.046Z,954.8315
2023-03-28T06:29:02.673Z,954.8262
2023-03-28T06:30:04.495Z,954.9000
2023-03-28T06:31:06.131Z,954.8885
2023-03-28T06:32:07.738Z,954.8661
2023-03-28T06:33:09.373Z,954.8638
2023-03-28T06:34:11.055Z,954.8723
2023-03-28T06:35:12.712Z,954.8638
2023-03-28T06:36:14.400Z,954.8661
2023-03-28T06:37:16.039Z,954.8685
2023-03-28T06:38:17.710Z,954.8730
2023-03-28T06:39:19.299Z,954.8831
2023-03-28T06:40:21.013Z,954.8877
2023-03-28T06:41:22.632Z,954.8839
2023-03-28T06:42:24.254Z,954.8700
2023-03-28T06:43:25.928Z,954.8516
2023-03-28T06:44:27.561Z,954.8392
2023-03-28T06:45:29.282Z,954.8300
2023-03-28T06:46:31.003Z,954.8354
2023-03-28T06:47:32.590Z,954.8454
2023-03-28T06:48:36.208Z,954.8561
2023-03-28T06:49:35.852Z,954.8615
2023-03-28T06:50:37.510Z,954.8454
2023-03-28T06:51:39.162Z,954.8185
2023-03-28T06:52:40.803Z,954.8038
2023-03-28T06:53:42.471Z,954.8054
2023-03-28T06:54:44.962Z,954.7992
2023-03-28T06:55:45.800Z,954.8170
2023-03-28T06:56:47.508Z,954.8192
2023-03-28T06:57:49.127Z,954.8377
2023-03-28T06:58:50.739Z,954.8638
2023-03-28T06:59:52.410Z,954.8754
2023-03-28T07:00:54.066Z,954.8862
2023-03-28T07:01:55.765Z,954.8792
2023-03-28T07:02:57.414Z,954.8846
2023-03-28T07:03:59.180Z,954.8854
2023-03-28T07:05:00.667Z,954.8792
2023-03-28T07:06:02.377Z,954.8808
2023-03-28T07:07:03.997Z,954.8923
2023-03-28T07:08:05.670Z,954.8939
2023-03-28T07:09:07.285Z,954.9000
2023-03-28T07:10:08.966Z,954.9108
2023-03-28T07:11:10.654Z,954.9223
2023-03-28T07:12:12.266Z,954.9338
2023-03-28T07:13:13.913Z,954.9400
2023-03-28T07:14:15.563Z,954.9615
2023-03-28T07:15:19.044Z,954.9815
2023-03-28T07:16:18.983Z,954.9885
2023-03-28T07:17:20.520Z,954.9954
2023-03-28T07:18:22.202Z,954.9977
2023-03-28T07:19:23.842Z,955.0123
2023-03-28T07:20:25.552Z,955.0092
2023-03-28T07:21:27.184Z,955.0062
2023-03-28T07:22:28.787Z,955.0131
2023-03-28T07:23:30.460Z,955.0077
2023-03-28T07:24:32.129Z,955.0031
2023-03-28T07:25:33.771Z,954.9938
2023-03-28T07:26:35.457Z,954.9946
2023-03-28T07:27:37.045Z,954.9954
2023-03-28T07:28:38.731Z,955.0000
2023-03-28T07:29:40.370Z,955.0092
2023-03-28T07:30:42.043Z,955.0131
2023-03-28T07:31:43.756Z,955.0239
2023-03-28T07:32:53.835Z,955.0231
2023-03-28T07:33:46.965Z,955.0308
2023-03-28T07:34:48.636Z,955.0308
2023-03-28T07:35:50.326Z,955.0208
2023-03-28T07:36:51.965Z,955.0192
2023-03-28T07:37:53.575Z,955.0323
2023-03-28T07:38:55.244Z,955.0247
2023-03-28T07:39:56.856Z,955.0262
2023-03-28T07:40:58.732Z,955.0323
2023-03-28T07:42:00.203Z,955.0438
2023-03-28T07:43:01.839Z,955.0392
2023-03-28T07:44:03.487Z,955.0438
2023-03-28T07:45:05.142Z,955.0415
2023-03-28T07:46:06.877Z,955.0485
2023-03-28T07:47:08.495Z,955.0485
2023-03-28T07:48:10.206Z,955.0877
2023-03-28T07:49:11.762Z,955.0908
2023-03-28T07:50:13.432Z,955.0538
2023-03-28T07:51:15.056Z,955.0415
2023-03-28T07:52:16.744Z,955.0515
2023-03-28T07:53:18.376Z,955.0477
2023-03-28T07:54:20.011Z,955.0538
2023-03-28T07:55:21.672Z,955.0630
2023-03-28T07:56:23.322Z,955.0815
2023-03-28T07:57:25.049Z,955.0662
2023-03-28T07:58:26.624Z,955.0646
2023-03-28T07:59:28.287Z,955.0623
2023-03-28T08:00:29.922Z,955.0638
2023-03-28T08:01:31.586Z,955.0677
2023-03-28T08:02:33.312Z,955.0846
2023-03-28T08:03:35.009Z,955.1061
2023-03-28T08:04:36.520Z,955.1077
2023-03-28T08:05:38.251Z,955.0946
2023-03-28T08:06:39.836Z,955.0670
2023-03-28T08:07:41.527Z,955.0723
2023-03-28T08:08:43.132Z,955.0762
2023-03-28T08:09:44.806Z,955.0677
2023-03-28T08:10:46.443Z,955.0692
2023-03-28T08:11:48.111Z,955.0692
2023-03-28T08:12:49.789Z,955.0885
2023-03-28T08:13:51.429Z,955.0831
2023-03-28T08:14:53.048Z,955.0800
2023-03-28T08:15:55.155Z,955.0554
2023-03-28T08:16:56.349Z,955.0361
2023-03-28T08:17:58.106Z,955.0054
2023-03-28T08:19:09.760Z,954.9877
2023-03-28T08:20:01.327Z,954.9725
2023-03-28T08:21:03.619Z,954.9808
2023-03-28T08:22:04.628Z,954.9892
2023-03-28T08:23:06.278Z,954.9846
2023-03-28T08:24:08.006Z,954.9885
2023-03-28T08:25:09.614Z,955.0123
2023-03-28T08:26:11.232Z,955.0339
2023-03-28T08:27:12.873Z,955.0446
2023-03-28T08:28:14.552Z,955.0630
2023-03-28T08:29:16.196Z,955.0662
2023-03-28T08:30:17.842Z,955.0777
2023-03-28T08:31:19.492Z,955.0670
2023-03-28T08:32:21.150Z,955.0785
2023-03-28T08:33:22.836Z,955.0892
2023-03-28T08:34:24.456Z,955.1085
2023-03-28T08:35:26.114Z,955.1415
2023-03-28T08:36:27.783Z,955.1492
2023-03-28T08:37:29.429Z,955.1554
2023-03-28T08:38:31.153Z,955.1700
2023-03-28T08:39:32.789Z,955.1592
2023-03-28T08:40:34.460Z,955.1677
2023-03-28T08:41:36.096Z,955.1754
2023-03-28T08:42:37.769Z,955.1800
2023-03-28T08:43:39.451Z,955.1769
2023-03-28T08:44:41.084Z,955.1970
2023-03-28T08:45:42.659Z,955.1954
2023-03-28T08:46:44.387Z,955.1915
2023-03-28T08:47:45.973Z,955.1923
2023-03-28T08:48:47.774Z,955.1808
2023-03-28T08:49:49.299Z,955.1985
2023-03-28T08:50:50.940Z,955.2123
2023-03-28T08:51:52.687Z,955.2169
2023-03-28T08:52:54.238Z,955.2308
2023-03-28T08:53:55.931Z,955.2454
2023-03-28T08:54:57.502Z,955.2462
2023-03-28T08:55:59.196Z,955.2546
2023-03-28T08:57:00.868Z,955.2323
2023-03-28T08:58:02.499Z,955.2200
2023-03-28T08:59:04.163Z,955.2154
2023-03-28T09:00:05.860Z,955.2085
2023-03-28T09:01:07.452Z,955.1938
2023-03-28T09:02:09.139Z,955.1885
2023-03-28T09:03:10.817Z,955.1946
2023-03-28T09:04:12.558Z,955.2054
2023-03-28T09:05:23.148Z,955.2007
2023-03-28T09:06:15.777Z,955.2000
2023-03-28T09:07:17.374Z,955.2047
2023-03-28T09:08:19.806Z,955.2000
2023-03-28T09:09:20.701Z,955.2069
2023-03-28T09:10:22.394Z,955.2047
2023-03-28T09:11:24.029Z,955.2000
2023-03-28T09:12:25.672Z,955.1862
2023-03-28T09:13:27.307Z,955.1892
2023-03-28T09:14:29.040Z,955.1900
2023-03-28T09:15:30.613Z,955.2008
2023-03-28T09:16:32.611Z,955.1892
2023-03-28T09:17:33.957Z,955.1885
2023-03-28T09:18:35.594Z,955.1746
2023-03-28T09:19:47.715Z,955.1484
2023-03-28T09:20:40.522Z,955.1208
2023-03-28T09:21:40.538Z,955.0916
2023-03-28T09:22:42.191Z,955.0792
2023-03-28T09:23:43.826Z,955.0770
2023-03-28T09:24:45.542Z,955.0931
2023-03-28T09:25:47.143Z,955.1200
2023-03-28T09:26:48.812Z,955.1569
2023-03-28T09:27:50.521Z,955.1708
2023-03-28T09:28:52.122Z,955.1685
2023-03-28T09:29:53.783Z,955.1715
2023-03-28T09:30:55.442Z,955.1638
2023-03-28T09:31:57.112Z,955.1692
2023-03-28T09:32:58.768Z,955.1808
2023-03-28T09:34:00.424Z,955.1946
2023-03-28T09:35:02.068Z,955.1900
2023-03-28T09:36:03.754Z,955.1700
2023-03-28T09:37:05.376Z,955.1623
2023-03-28T09:38:06.992Z,955.1400
2023-03-28T09:39:08.650Z,955.1485
2023-03-28T09:40:10.314Z,955.1485
2023-03-28T09:41:11.982Z,955.1554
2023-03-28T09:42:13.598Z,955.1838
2023-03-28T09:43:15.263Z,955.2023
2023-03-28T09:44:16.897Z,955.2200
2023-03-28T09:45:18.598Z,955.2253
2023-03-28T09:46:20.259Z,955.2261
2023-03-28T09:47:21.926Z,955.2007
2023-03-28T09:48:23.564Z,955.1769
2023-03-28T09:49:25.180Z,955.1546
2023-03-28T09:50:26.837Z,955.1208
2023-03-28T09:51:28.488Z,955.1192
2023-03-28T09:52:30.149Z,955.1061
2023-03-28T09:53:33.187Z,955.0908
2023-03-28T09:54:33.409Z,955.0823
2023-03-28T09:55:35.759Z,955.0731
2023-03-28T09:56:36.761Z,955.0608
2023-03-28T09:57:38.373Z,955.0500
2023-03-28T09:58:40.016Z,955.0523
2023-03-28T09:59:41.685Z,955.0554
2023-03-28T10:00:43.344Z,955.0500
2023-03-28T10:01:45.066Z,955.0192
2023-03-28T10:02:46.662Z,955.0131
2023-03-28T10:03:48.293Z,955.0077
2023-03-28T10:04:49.939Z,955.0046
2023-03-28T10:05:51.604Z,955.0085
2023-03-28T10:06:53.214Z,955.0146
2023-03-28T10:07:54.891Z,955.0200
2023-03-28T10:08:56.563Z,955.0131
2023-03-28T10:09:58.192Z,955.0162
2023-03-28T10:11:00.019Z,954.9985
2023-03-28T10:12:01.501Z,955.0085
2023-03-28T10:13:03.120Z,955.0200
2023-03-28T10:14:04.797Z,955.0385
2023-03-28T10:15:06.434Z,955.0523
2023-03-28T10:16:08.211Z,955.0569
2023-03-28T10:17:09.761Z,955.0431
2023-03-28T10:18:11.459Z,955.0308
2023-03-28T10:19:13.031Z,955.0239
2023-03-28T10:20:14.708Z,955.0123
2023-03-28T10:21:16.373Z,955.0192
2023-03-28T10:22:18.014Z,955.0115
2023-03-28T10:23:19.654Z,955.0146
2023-03-28T10:24:21.312Z,955.0092
2023-03-28T10:25:22.962Z,954.9808
2023-03-28T10:26:24.662Z,954.9508
2023-03-28T10:27:26.271Z,954.9477
2023-03-28T10:28:27.933Z,954.8961
2023-03-28T10:29:29.566Z,954.8354
2023-03-28T10:30:31.228Z,954.8308
2023-03-28T10:31:32.967Z,954.8200
2023-03-28T10:32:34.559Z,954.7931
2023-03-28T10:33:36.249Z,954.7784
2023-03-28T10:34:37.929Z,954.7961
2023-03-28T10:35:39.578Z,954.7723
2023-03-28T10:36:41.283Z,954.7677
2023-03-28T10:37:42.876Z,954.7623
2023-03-28T10:38:44.537Z,954.7685
2023-03-28T10:39:46.157Z,954.7577
2023-03-28T10:40:47.876Z,954.7377
2023-03-28T10:41:49.511Z,954.7208
2023-03-28T10:42:51.151Z,954.6985
2023-03-28T10:43:52.764Z,954.7077
2023-03-28T10:44:54.453Z,954.6892
2023-03-28T10:45:56.136Z,954.6638
2023-03-28T10:46:57.806Z,954.6292
2023-03-28T10:47:59.424Z,954.6215
2023-03-28T10:49:01.066Z,954.6161
2023-03-28T10:50:02.696Z,954.6123
2023-03-28T10:51:04.353Z,954.6454
2023-03-28T10:52:05.998Z,954.6777
2023-03-28T10:53:07.669Z,954.6531
2023-03-28T10:54:09.289Z,954.6447
2023-03-28T10:55:10.966Z,954.6300
2023-03-28T10:56:12.584Z,954.6385
2023-03-28T10:57:14.343Z,954.6508
2023-03-28T10:58:15.883Z,954.6516
2023-03-28T10:59:17.580Z,954.6315
2023-03-28T11:00:19.190Z,954.6323
2023-03-28T11:01:20.869Z,954.6300
2023-03-28T11:02:22.537Z,954.6223
2023-03-28T11:03:24.268Z,954.6300
2023-03-28T11:04:25.814Z,954.6100
2023-03-28T11:05:27.448Z,954.6046
2023-03-28T11:06:29.126Z,954.6046
2023-03-28T11:07:31.190Z,954.5892
2023-03-28T11:08:32.425Z,954.5554
2023-03-28T11:09:34.066Z,954.5369
2023-03-28T11:10:35.737Z,954.5023
2023-03-28T11:11:37.379Z,954.4869
2023-03-28T11:12:51.316Z,954.4838
2023-03-28T11:13:40.778Z,954.4883
2023-03-28T11:14:42.346Z,954.4777
2023-03-28T11:15:43.998Z,954.4623
2023-03-28T11:16:45.664Z,954.4646
2023-03-28T11:17:47.368Z,954.4692
2023-03-28T11:18:48.969Z,954.4569
2023-03-28T11:19:50.595Z,954.4585
2023-03-28T11:20:52.281Z,954.4370
2023-03-28T11:21:53.894Z,954.4338
2023-03-28T11:23:05.198Z,954.4146
2023-03-28T11:23:57.229Z,954.3909
2023-03-28T11:24:58.877Z,954.3854
2023-03-28T11:26:00.538Z,954.3839
2023-03-28T11:27:14.834Z,954.3977
2023-03-28T11:28:03.863Z,954.3967
2023-03-28T11:29:05.501Z,954.4039
2023-03-28T11:30:07.139Z,954.4100
2023-03-28T11:31:08.864Z,954.3862
2023-03-28T11:32:10.455Z,954.3523
2023-03-28T11:33:12.154Z,954.3392
2023-03-28T11:34:13.777Z,954.3500
2023-03-28T11:35:15.448Z,954.3369
2023-03-28T11:36:17.087Z,954.3062
2023-03-28T11:37:18.749Z,954.2892
2023-03-28T11:38:20.406Z,954.2953
2023-03-28T11:39:22.049Z,954.3130
2023-03-28T11:40:23.698Z,954.3154
2023-03-28T11:41:25.373Z,954.3115
2023-03-28T11:42:26.990Z,954.2908
2023-03-28T11:43:28.716Z,954.2631
2023-03-28T11:44:30.301Z,954.2500
2023-03-28T11:45:49.466Z,954.2446
2023-03-28T11:46:33.640Z,954.2667
2023-03-28T11:47:35.315Z,954.2577
2023-03-28T11:48:37.027Z,954.2646
2023-03-28T11:49:38.597Z,954.2685
2023-03-28T11:50:40.283Z,954.2654
2023-03-28T11:51:41.891Z,954.2462
2023-03-28T11:52:43.553Z,954.2361
2023-03-28T11:53:45.224Z,954.2300
2023-03-28T11:54:46.901Z,954.2253
2023-03-28T11:55:48.540Z,954.2300
2023-03-28T11:56:50.303Z,954.2508
2023-03-28T11:57:51.812Z,954.2662
2023-03-28T11:58:53.515Z,954.2454
2023-03-28T11:59:55.154Z,954.2123
2023-03-28T12:00:56.827Z,954.1870
2023-03-28T12:01:58.465Z,954.1661
2023-03-28T12:03:00.332Z,954.1561
2023-03-28T12:04:01.863Z,954.1653